createdAt,value
2017-05-02T00:00:44.070Z,12.62
2017-05-02T00:01:44.411Z,12.62
2017-05-02T00:02:44.144Z,12.64
2017-05-02T00:03:44.486Z,12.6
2017-05-02T00:04:44.524Z,12.54
2017-05-02T00:05:44.563Z,12.66
2017-05-02T00:06:44.289Z,12.62
2017-05-02T00:07:44.641Z,12.6
2017-05-02T00:08:44.674Z,12.57
2017-05-02T00:09:45.023Z,12.52
2017-05-02T00:10:44.749Z,12.54
2017-05-02T00:11:44.474Z,12.54
2017-05-02T00:12:44.825Z,12.51
2017-05-02T00:13:44.854Z,12.57
2017-05-02T00:14:44.586Z,12.54
2017-05-02T00:15:44.622Z,12.52
2017-05-02T00:16:44.659Z,12.42
2017-05-02T00:17:44.700Z,12.51
2017-05-02T00:18:45.040Z,12.48
2017-05-02T00:19:45.393Z,12.41
2017-05-02T00:20:44.806Z,12.41
2017-05-02T00:21:45.146Z,12.31
2017-05-02T00:22:45.190Z,12.33
2017-05-02T00:23:44.915Z,12.37
2017-05-02T00:24:44.990Z,12.37
2017-05-02T00:25:45.293Z,12.33
2017-05-02T00:26:45.026Z,12.31
2017-05-02T00:27:45.682Z,12.3
2017-05-02T00:28:45.720Z,12.39
2017-05-02T00:29:45.135Z,12.26
2017-05-02T00:30:45.171Z,12.34
2017-05-02T00:31:45.854Z,12.34
2017-05-02T00:32:45.551Z,12.31
2017-05-02T00:33:45.903Z,12.27
2017-05-02T00:34:45.634Z,12.29
2017-05-02T00:35:45.354Z,12.29
2017-05-02T00:36:45.698Z,12.27
2017-05-02T00:37:46.046Z,12.26
2017-05-02T00:38:45.777Z,12.31
2017-05-02T00:39:45.807Z,12.3
2017-05-02T00:40:45.552Z,12.26
2017-05-02T00:41:45.579Z,12.31
2017-05-02T00:42:45.921Z,12.27
2017-05-02T00:43:45.644Z,12.23
2017-05-02T00:44:45.996Z,12.29
2017-05-02T00:45:45.727Z,12.3
2017-05-02T00:46:46.064Z,12.26
2017-05-02T00:47:46.413Z,12.27
2017-05-02T00:48:46.141Z,12.26
2017-05-02T00:49:45.865Z,12.24
2017-05-02T00:50:46.209Z,12.2
2017-05-02T00:51:46.558Z,12.29
2017-05-02T00:52:46.618Z,12.2
2017-05-02T00:53:46.644Z,12.2
2017-05-02T00:54:46.667Z,12.19
2017-05-02T00:55:46.707Z,12.26
2017-05-02T00:56:46.124Z,12.16
2017-05-02T00:57:46.787Z,12.21
2017-05-02T00:58:46.506Z,12.23
2017-05-02T00:59:46.854Z,12.2
2017-05-02T01:00:46.271Z,12.21
2017-05-02T01:01:46.315Z,12.16
2017-05-02T01:02:46.343Z,12.19
2017-05-02T01:03:46.384Z,12.16
2017-05-02T01:04:46.725Z,12.16
2017-05-02T01:05:46.453Z,12.12
2017-05-02T01:06:46.797Z,12.11
2017-05-02T01:07:46.834Z,12.08
2017-05-02T01:08:47.176Z,12.08
2017-05-02T01:09:46.907Z,12.01
2017-05-02T01:10:46.938Z,12.02
2017-05-02T01:11:46.978Z,12.06
2017-05-02T01:12:46.711Z,12.15
2017-05-02T01:13:47.055Z,12.09
2017-05-02T01:14:46.778Z,12.12
2017-05-02T01:15:46.816Z,12.15
2017-05-02T01:16:46.851Z,12.09
2017-05-02T01:17:46.888Z,12.06
2017-05-02T01:18:47.234Z,12.08
2017-05-02T01:19:46.962Z,12.05
2017-05-02T01:20:46.997Z,12.08
2017-05-02T01:21:47.345Z,12.08
2017-05-02T01:22:47.074Z,12.08
2017-05-02T01:23:47.107Z,12.01
2017-05-02T01:24:47.144Z,11.99
2017-05-02T01:25:47.177Z,11.99
2017-05-02T01:26:47.226Z,12.05
2017-05-02T01:27:47.254Z,12.08
2017-05-02T01:28:47.912Z,12.04
2017-05-02T01:29:47.946Z,11.99
2017-05-02T01:30:47.370Z,11.97
2017-05-02T01:31:47.403Z,12.02
2017-05-02T01:32:47.437Z,12.01
2017-05-02T01:33:47.486Z,12.05
2017-05-02T01:34:47.819Z,12.02
2017-05-02T01:35:47.852Z,11.93
2017-05-02T01:36:47.579Z,11.96
2017-05-02T01:37:47.925Z,12.02
2017-05-02T01:38:47.966Z,12.04
2017-05-02T01:39:47.996Z,12.01
2017-05-02T01:40:48.035Z,12.02
2017-05-02T01:41:47.767Z,11.93
2017-05-02T01:42:48.113Z,12.01
2017-05-02T01:43:48.455Z,12.01
2017-05-02T01:44:48.184Z,11.97
2017-05-02T01:45:47.913Z,12.05
2017-05-02T01:46:47.959Z,11.96
2017-05-02T01:47:47.995Z,11.93
2017-05-02T01:48:48.332Z,11.87
2017-05-02T01:49:48.381Z,11.86
2017-05-02T01:50:48.113Z,11.97
2017-05-02T01:51:48.126Z,11.93
2017-05-02T01:52:48.170Z,11.93
2017-05-02T01:53:48.205Z,11.89
2017-05-02T01:54:48.553Z,11.93
2017-05-02T01:55:48.284Z,11.82
2017-05-02T01:56:48.629Z,11.9
2017-05-02T01:57:51.026Z,11.93
2017-05-02T01:58:49.003Z,11.9
2017-05-02T01:59:48.726Z,11.9
2017-05-02T02:00:48.458Z,11.86
2017-05-02T02:01:48.495Z,11.82
2017-05-02T02:02:48.842Z,11.83
2017-05-02T02:03:48.869Z,11.87
2017-05-02T02:04:48.913Z,11.9
2017-05-02T02:05:48.949Z,11.82
2017-05-02T02:06:48.988Z,11.78
2017-05-02T02:07:48.715Z,11.85
2017-05-02T02:08:48.751Z,11.9
2017-05-02T02:09:48.780Z,11.93
2017-05-02T02:10:48.817Z,11.86
2017-05-02T02:11:48.864Z,11.85
2017-05-02T02:12:49.205Z,11.9
2017-05-02T02:13:49.543Z,11.78
2017-05-02T02:14:48.966Z,11.8
2017-05-02T02:15:49.311Z,11.75
2017-05-02T02:16:49.346Z,11.78
2017-05-02T02:17:49.391Z,11.7
2017-05-02T02:18:49.423Z,11.67
2017-05-02T02:19:49.151Z,11.71
2017-05-02T02:20:49.522Z,11.7
2017-05-02T02:21:49.525Z,11.67
2017-05-02T02:22:49.877Z,11.54
2017-05-02T02:23:49.297Z,11.52
2017-05-02T02:24:49.942Z,11.43
2017-05-02T02:25:49.986Z,11.44
2017-05-02T02:26:49.709Z,11.36
2017-05-02T02:27:49.745Z,11.29
2017-05-02T02:28:49.783Z,11.34
2017-05-02T02:29:49.820Z,11.27
2017-05-02T02:30:49.552Z,11.35
2017-05-02T02:31:49.586Z,11.32
2017-05-02T02:32:49.635Z,11.28
2017-05-02T02:33:49.963Z,11.28
2017-05-02T02:34:49.695Z,11.17
2017-05-02T02:35:50.035Z,11.14
2017-05-02T02:36:49.762Z,11.16
2017-05-02T02:37:49.797Z,11.14
2017-05-02T02:38:50.473Z,11.14
2017-05-02T02:39:50.198Z,11.09
2017-05-02T02:40:50.221Z,11.03
2017-05-02T02:41:49.941Z,11.06
2017-05-02T02:42:50.293Z,10.99
2017-05-02T02:43:50.012Z,10.94
2017-05-02T02:44:50.048Z,10.91
2017-05-02T02:45:50.400Z,10.92
2017-05-02T02:46:50.431Z,10.84
2017-05-02T02:47:50.483Z,10.89
2017-05-02T02:48:50.506Z,10.83
2017-05-02T02:49:50.535Z,10.8
2017-05-02T02:50:50.266Z,10.91
2017-05-02T02:51:50.301Z,10.8
2017-05-02T02:52:50.655Z,10.74
2017-05-02T02:53:50.687Z,10.77
2017-05-02T02:54:50.720Z,10.81
2017-05-02T02:55:50.446Z,10.7
2017-05-02T02:56:50.791Z,10.76
2017-05-02T02:57:50.829Z,10.89
2017-05-02T02:58:50.557Z,10.78
2017-05-02T02:59:50.588Z,10.76
2017-05-02T03:00:50.933Z,10.81
2017-05-02T03:01:50.656Z,10.8
2017-05-02T03:02:50.732Z,10.74
2017-05-02T03:03:50.731Z,10.77
2017-05-02T03:04:50.773Z,10.76
2017-05-02T03:05:50.806Z,10.84
2017-05-02T03:06:51.458Z,10.65
2017-05-02T03:07:51.514Z,10.74
2017-05-02T03:08:51.552Z,10.88
2017-05-02T03:09:50.952Z,10.84
2017-05-02T03:10:50.979Z,10.84
2017-05-02T03:11:51.029Z,10.8
2017-05-02T03:12:51.375Z,10.84
2017-05-02T03:13:51.097Z,10.84
2017-05-02T03:14:51.438Z,10.83
2017-05-02T03:15:51.482Z,10.83
2017-05-02T03:16:51.818Z,10.91
2017-05-02T03:17:51.543Z,10.83
2017-05-02T03:18:51.583Z,10.84
2017-05-02T03:19:51.614Z,10.84
2017-05-02T03:20:51.654Z,10.73
2017-05-02T03:21:51.382Z,10.8
2017-05-02T03:22:51.411Z,10.8
2017-05-02T03:23:51.764Z,10.86
2017-05-02T03:24:51.799Z,10.88
2017-05-02T03:25:51.520Z,10.73
2017-05-02T03:26:51.870Z,10.73
2017-05-02T03:27:51.902Z,10.78
2017-05-02T03:28:52.265Z,10.7
2017-05-02T03:29:52.301Z,10.65
2017-05-02T03:30:52.310Z,10.73
2017-05-02T03:31:51.735Z,10.66
2017-05-02T03:32:51.774Z,10.74
2017-05-02T03:33:52.116Z,10.78
2017-05-02T03:34:52.153Z,10.66
2017-05-02T03:35:51.879Z,10.74
2017-05-02T03:36:52.528Z,10.73
2017-05-02T03:37:52.583Z,10.81
2017-05-02T03:38:52.298Z,10.91
2017-05-02T03:39:52.019Z,10.78
2017-05-02T03:40:52.667Z,10.73
2017-05-02T03:41:52.705Z,10.66
2017-05-02T03:42:52.130Z,10.66
2017-05-02T03:43:52.472Z,10.68
2017-05-02T03:44:52.200Z,10.68
2017-05-02T03:45:52.249Z,10.63
2017-05-02T03:46:52.283Z,10.58
2017-05-02T03:47:52.307Z,10.6
2017-05-02T03:48:52.346Z,10.6
2017-05-02T03:49:52.685Z,10.62
2017-05-02T03:50:52.423Z,10.65
2017-05-02T03:51:52.454Z,10.66
2017-05-02T03:52:52.794Z,10.66
2017-05-02T03:53:52.532Z,10.7
2017-05-02T03:54:52.560Z,10.63
2017-05-02T03:55:52.595Z,10.58
2017-05-02T03:56:52.632Z,10.6
2017-05-02T03:57:52.972Z,10.55
2017-05-02T03:58:52.708Z,10.62
2017-05-02T03:59:52.735Z,10.6
2017-05-02T04:00:52.772Z,10.56
2017-05-02T04:01:53.121Z,10.59
2017-05-02T04:02:53.458Z,10.53
2017-05-02T04:03:53.187Z,10.52
2017-05-02T04:04:53.231Z,10.51
2017-05-02T04:05:52.950Z,10.53
2017-05-02T04:06:53.334Z,10.4
2017-05-02T04:07:53.335Z,10.43
2017-05-02T04:08:53.369Z,10.47
2017-05-02T04:09:53.406Z,10.42
2017-05-02T04:10:53.441Z,10.42
2017-05-02T04:11:53.179Z,10.37
2017-05-02T04:12:53.516Z,10.42
2017-05-02T04:13:53.235Z,10.44
2017-05-02T04:14:53.583Z,10.52
2017-05-02T04:15:53.308Z,10.52
2017-05-02T04:16:53.345Z,10.55
2017-05-02T04:17:53.688Z,10.58
2017-05-02T04:18:53.413Z,10.56
2017-05-02T04:19:53.460Z,10.62
2017-05-02T04:20:53.800Z,10.55
2017-05-02T04:21:53.527Z,10.56
2017-05-02T04:22:53.566Z,10.65
2017-05-02T04:23:53.594Z,10.62
2017-05-02T04:24:53.937Z,10.52
2017-05-02T04:25:53.669Z,10.53
2017-05-02T04:26:53.696Z,10.59
2017-05-02T04:27:54.053Z,10.62
2017-05-02T04:28:54.080Z,10.56
2017-05-02T04:29:54.120Z,10.59
2017-05-02T04:30:53.841Z,10.6
2017-05-02T04:31:54.187Z,10.71
2017-05-02T04:32:54.223Z,10.59
2017-05-02T04:33:53.952Z,10.6
2017-05-02T04:34:54.604Z,10.59
2017-05-02T04:35:54.019Z,10.6
2017-05-02T04:36:54.062Z,10.65
2017-05-02T04:37:54.091Z,10.62
2017-05-02T04:38:54.442Z,10.63
2017-05-02T04:39:54.479Z,10.55
2017-05-02T04:40:54.512Z,10.59
2017-05-02T04:41:54.245Z,10.62
2017-05-02T04:42:54.584Z,10.63
2017-05-02T04:43:54.312Z,10.63
2017-05-02T04:44:54.348Z,10.66
2017-05-02T04:45:54.692Z,10.73
2017-05-02T04:46:54.726Z,10.58
2017-05-02T04:47:54.460Z,10.55
2017-05-02T04:48:54.800Z,10.58
2017-05-02T04:49:54.880Z,10.6
2017-05-02T04:50:54.872Z,10.62
2017-05-02T04:51:54.596Z,10.62
2017-05-02T04:52:54.939Z,10.73
2017-05-02T04:53:54.974Z,10.71
2017-05-02T04:54:54.737Z,10.56
2017-05-02T04:55:54.741Z,10.53
2017-05-02T04:56:54.771Z,10.62
2017-05-02T04:57:54.810Z,10.59
2017-05-02T04:58:55.151Z,10.58
2017-05-02T04:59:54.886Z,10.58
2017-05-02T05:00:54.917Z,10.53
2017-05-02T05:01:54.955Z,10.43
2017-05-02T05:02:54.990Z,10.43
2017-05-02T05:03:55.338Z,10.47
2017-05-02T05:04:55.374Z,10.59
2017-05-02T05:05:55.407Z,10.65
2017-05-02T05:06:55.134Z,10.62
2017-05-02T05:07:55.475Z,10.56
2017-05-02T05:08:55.508Z,10.59
2017-05-02T05:09:55.546Z,10.47
2017-05-02T05:10:55.274Z,10.51
2017-05-02T05:11:55.309Z,10.53
2017-05-02T05:12:55.657Z,10.46
2017-05-02T05:13:55.385Z,10.44
2017-05-02T05:14:55.734Z,10.51
2017-05-02T05:15:55.459Z,10.51
2017-05-02T05:16:55.804Z,10.6
2017-05-02T05:17:55.523Z,10.65
2017-05-02T05:18:55.565Z,10.56
2017-05-02T05:19:55.597Z,10.53
2017-05-02T05:20:55.634Z,10.58
2017-05-02T05:21:55.667Z,10.59
2017-05-02T05:22:55.714Z,10.59
2017-05-02T05:23:56.054Z,10.63
2017-05-02T05:24:56.090Z,10.62
2017-05-02T05:25:55.851Z,10.63
2017-05-02T05:26:55.853Z,10.56
2017-05-02T05:27:56.191Z,10.68
2017-05-02T05:28:56.235Z,10.58
2017-05-02T05:29:56.264Z,10.65
2017-05-02T05:30:55.993Z,10.68
2017-05-02T05:31:56.640Z,10.58
2017-05-02T05:32:56.383Z,10.6
2017-05-02T05:33:56.407Z,10.56
2017-05-02T05:34:56.451Z,10.62
2017-05-02T05:35:56.171Z,10.59
2017-05-02T05:36:56.208Z,10.56
2017-05-02T05:37:56.250Z,10.52
2017-05-02T05:38:56.818Z,10.59
2017-05-02T05:39:56.658Z,10.56
2017-05-02T05:40:56.661Z,10.59
2017-05-02T05:41:56.390Z,10.52
2017-05-02T05:42:56.731Z,10.55
2017-05-02T05:43:56.788Z,10.47
2017-05-02T05:44:56.624Z,10.63
2017-05-02T05:45:56.840Z,10.56
2017-05-02T05:46:56.868Z,10.55
2017-05-02T05:47:56.914Z,10.53
2017-05-02T05:48:57.253Z,10.68
2017-05-02T05:49:57.306Z,10.53
2017-05-02T05:50:57.020Z,10.6
2017-05-02T05:51:56.750Z,10.58
2017-05-02T05:52:57.085Z,10.55
2017-05-02T05:53:56.815Z,10.58
2017-05-02T05:54:57.229Z,10.58
2017-05-02T05:55:56.885Z,10.58
2017-05-02T05:56:57.231Z,10.65
2017-05-02T05:57:57.268Z,10.62
2017-05-02T05:58:57.612Z,10.71
2017-05-02T05:59:57.343Z,10.59
2017-05-02T06:00:57.374Z,10.66
2017-05-02T06:01:57.102Z,10.74
2017-05-02T06:02:57.756Z,10.7
2017-05-02T06:03:57.486Z,10.71
2017-05-02T06:04:57.526Z,10.76
2017-05-02T06:05:57.559Z,10.73
2017-05-02T06:06:57.282Z,10.66
2017-05-02T06:07:57.636Z,10.65
2017-05-02T06:08:57.967Z,10.73
2017-05-02T06:09:57.397Z,10.83
2017-05-02T06:10:57.733Z,10.88
2017-05-02T06:11:57.465Z,10.8
2017-05-02T06:12:57.823Z,10.89
2017-05-02T06:13:58.155Z,10.83
2017-05-02T06:14:57.564Z,10.84
2017-05-02T06:15:57.605Z,10.8
2017-05-02T06:16:57.638Z,10.94
2017-05-02T06:17:57.984Z,10.92
2017-05-02T06:18:58.329Z,10.96
2017-05-02T06:19:57.754Z,10.94
2017-05-02T06:20:57.783Z,10.89
2017-05-02T06:21:57.819Z,10.78
2017-05-02T06:22:58.167Z,10.92
2017-05-02T06:23:58.202Z,10.92
2017-05-02T06:24:58.915Z,10.96
2017-05-02T06:25:57.966Z,10.98
2017-05-02T06:26:58.334Z,10.98
2017-05-02T06:27:58.649Z,11.02
2017-05-02T06:28:58.109Z,11.03
2017-05-02T06:29:58.110Z,11.06
2017-05-02T06:30:58.147Z,11.1
2017-05-02T06:31:58.305Z,11.1
2017-05-02T06:32:58.709Z,11.1
2017-05-02T06:33:58.818Z,10.98
2017-05-02T06:34:59.045Z,11.01
2017-05-02T06:35:58.902Z,11.07
2017-05-02T06:36:59.572Z,11.13
2017-05-02T06:37:58.864Z,11.19
2017-05-02T06:38:58.918Z,11.16
2017-05-02T06:39:58.732Z,11.13
2017-05-02T06:40:59.086Z,11.17
2017-05-02T06:41:59.597Z,11.21
2017-05-02T06:42:58.963Z,11.16
2017-05-02T06:43:58.989Z,11.06
2017-05-02T06:44:59.109Z,11.01
2017-05-02T06:46:00.182Z,11.06
2017-05-02T06:46:59.341Z,11.02
2017-05-02T06:47:59.130Z,10.95
2017-05-02T06:48:59.107Z,10.86
2017-05-02T06:49:59.230Z,10.8
2017-05-02T06:50:58.863Z,10.89
2017-05-02T06:51:59.209Z,10.86
2017-05-02T06:52:59.247Z,10.89
2017-05-02T06:53:59.313Z,10.76
2017-05-02T06:54:59.002Z,10.76
2017-05-02T06:55:59.039Z,10.88
2017-05-02T06:56:59.386Z,10.94
2017-05-02T06:57:59.426Z,10.91
2017-05-02T06:58:59.155Z,10.91
2017-05-02T06:59:59.494Z,10.77
2017-05-02T07:00:59.216Z,10.84
2017-05-02T07:01:59.561Z,10.76
2017-05-02T07:02:59.598Z,10.83
2017-05-02T07:03:59.328Z,10.83
2017-05-02T07:04:59.365Z,10.84
2017-05-02T07:05:59.405Z,10.78
2017-05-02T07:06:59.743Z,10.92
2017-05-02T07:07:59.783Z,10.86
2017-05-02T07:08:59.818Z,10.83
2017-05-02T07:09:59.634Z,10.77
2017-05-02T07:10:59.677Z,10.88
2017-05-02T07:11:59.694Z,10.84
2017-05-02T07:13:00.149Z,10.73
2017-05-02T07:13:59.686Z,10.7
2017-05-02T07:14:59.720Z,10.65
2017-05-02T07:15:59.769Z,10.59
2017-05-02T07:16:59.798Z,10.6
2017-05-02T07:18:00.137Z,10.55
2017-05-02T07:18:59.977Z,10.36
2017-05-02T07:20:00.330Z,10.37
2017-05-02T07:20:59.936Z,10.3
2017-05-02T07:22:00.284Z,10.18
2017-05-02T07:23:00.709Z,10.17
2017-05-02T07:24:00.357Z,10.14
2017-05-02T07:25:00.080Z,10.19
2017-05-02T07:26:00.126Z,10.15
2017-05-02T07:27:00.153Z,10.19
2017-05-02T07:28:00.502Z,10.12
2017-05-02T07:29:00.847Z,9.99
2017-05-02T07:30:00.578Z,10.03
2017-05-02T07:31:00.348Z,9.89
2017-05-02T07:32:01.262Z,9.86
2017-05-02T07:33:00.673Z,9.96
2017-05-02T07:34:00.743Z,9.96
2017-05-02T07:35:00.749Z,9.96
2017-05-02T07:36:00.486Z,9.97
2017-05-02T07:37:00.816Z,10
2017-05-02T07:38:00.851Z,9.97
2017-05-02T07:39:01.262Z,9.97
2017-05-02T07:40:00.924Z,10.07
2017-05-02T07:41:00.669Z,10.04
2017-05-02T07:42:00.684Z,10.07
2017-05-02T07:43:01.345Z,10.09
2017-05-02T07:44:00.750Z,10.09
2017-05-02T07:45:01.099Z,10.17
2017-05-02T07:46:00.826Z,10.1
2017-05-02T07:47:00.860Z,10.14
2017-05-02T07:48:01.511Z,10.06
2017-05-02T07:49:01.240Z,10.06
2017-05-02T07:50:01.285Z,10.14
2017-05-02T07:51:01.326Z,10.12
2017-05-02T07:52:01.137Z,10.1
2017-05-02T07:53:01.077Z,10.15
2017-05-02T07:54:01.429Z,10.01
2017-05-02T07:55:01.760Z,10.14
2017-05-02T07:56:01.182Z,10.18
2017-05-02T07:57:01.532Z,10.19
2017-05-02T07:58:01.560Z,10.18
2017-05-02T07:59:01.292Z,10.19
2017-05-02T08:00:01.634Z,10.17
2017-05-02T08:01:01.666Z,10.12
2017-05-02T08:02:01.704Z,10.18
2017-05-02T08:03:01.742Z,10.17
2017-05-02T08:04:01.776Z,10.09
2017-05-02T08:05:01.811Z,10.07
2017-05-02T08:06:01.538Z,10.06
2017-05-02T08:07:01.888Z,10.15
2017-05-02T08:08:01.612Z,10.06
2017-05-02T08:09:02.426Z,10.17
2017-05-02T08:10:02.304Z,10.06
2017-05-02T08:11:01.715Z,10.15
2017-05-02T08:12:01.753Z,10.19
2017-05-02T08:13:01.788Z,10.24
2017-05-02T08:14:02.128Z,10.19
2017-05-02T08:15:02.170Z,10.26
2017-05-02T08:16:01.894Z,10.19
2017-05-02T08:17:01.930Z,10.34
2017-05-02T08:18:01.967Z,10.42
2017-05-02T08:19:02.019Z,10.42
2017-05-02T08:20:02.343Z,10.46
2017-05-02T08:21:02.075Z,10.46
2017-05-02T08:22:02.110Z,10.51
2017-05-02T08:23:02.448Z,10.47
2017-05-02T08:24:02.485Z,10.47
2017-05-02T08:25:02.523Z,10.6
2017-05-02T08:26:02.555Z,10.58
2017-05-02T08:27:02.904Z,10.59
2017-05-02T08:28:02.626Z,10.62
2017-05-02T08:29:02.354Z,10.59
2017-05-02T08:30:03.007Z,10.56
2017-05-02T08:31:02.429Z,10.62
2017-05-02T08:32:02.469Z,10.6
2017-05-02T08:33:03.123Z,10.6
2017-05-02T08:34:02.844Z,10.58
2017-05-02T08:35:03.187Z,10.56
2017-05-02T08:36:02.610Z,10.65
2017-05-02T08:37:02.640Z,10.59
2017-05-02T08:38:02.991Z,10.56
2017-05-02T08:39:02.719Z,10.65
2017-05-02T08:40:03.062Z,10.6
2017-05-02T08:41:03.093Z,10.58
2017-05-02T08:42:03.132Z,10.6
2017-05-02T08:43:03.472Z,10.47
2017-05-02T08:44:03.208Z,10.52
2017-05-02T08:45:02.925Z,10.44
2017-05-02T08:46:03.270Z,10.37
2017-05-02T08:47:03.307Z,10.24
2017-05-02T08:48:03.348Z,10.15
2017-05-02T08:49:03.076Z,10.19
2017-05-02T08:50:03.119Z,10.03
2017-05-02T08:51:03.140Z,10
2017-05-02T08:52:03.489Z,10.03
2017-05-02T08:53:03.521Z,9.96
2017-05-02T08:54:03.559Z,10
2017-05-02T08:55:03.290Z,9.94
2017-05-02T08:56:03.628Z,9.99
2017-05-02T08:57:03.357Z,10.03
2017-05-02T08:58:03.733Z,10.04
2017-05-02T08:59:03.429Z,10.15
2017-05-02T09:00:03.774Z,10.09
2017-05-02T09:01:03.807Z,10.15
2017-05-02T09:02:03.874Z,10.18
2017-05-02T09:03:04.197Z,10.15
2017-05-02T09:04:04.225Z,10.22
2017-05-02T09:05:04.255Z,10.22
2017-05-02T09:06:04.004Z,10.28
2017-05-02T09:07:03.712Z,10.34
2017-05-02T09:08:03.780Z,10.4
2017-05-02T09:09:03.784Z,10.43
2017-05-02T09:10:04.138Z,10.44
2017-05-02T09:11:03.876Z,10.52
2017-05-02T09:12:03.922Z,10.56
2017-05-02T09:13:03.934Z,10.46
2017-05-02T09:14:03.967Z,10.56
2017-05-02T09:15:04.004Z,10.58
2017-05-02T09:16:04.048Z,10.66
2017-05-02T09:17:04.073Z,10.68
2017-05-02T09:18:04.417Z,10.86
2017-05-02T09:19:04.468Z,10.84
2017-05-02T09:20:04.494Z,10.89
2017-05-02T09:21:04.523Z,10.86
2017-05-02T09:22:04.257Z,10.86
2017-05-02T09:23:04.290Z,10.88
2017-05-02T09:24:04.328Z,10.76
2017-05-02T09:25:04.675Z,10.88
2017-05-02T09:26:05.029Z,10.81
2017-05-02T09:27:04.755Z,10.89
2017-05-02T09:28:04.467Z,10.83
2017-05-02T09:29:04.819Z,10.78
2017-05-02T09:30:04.547Z,10.83
2017-05-02T09:31:04.581Z,10.91
2017-05-02T09:32:04.931Z,10.84
2017-05-02T09:33:04.654Z,10.88
2017-05-02T09:34:04.688Z,10.8
2017-05-02T09:35:05.339Z,10.76
2017-05-02T09:36:05.066Z,10.71
2017-05-02T09:37:04.801Z,10.71
2017-05-02T09:38:05.142Z,10.68
2017-05-02T09:39:05.341Z,10.59
2017-05-02T09:40:05.213Z,10.65
2017-05-02T09:41:05.014Z,10.68
2017-05-02T09:42:04.977Z,10.66
2017-05-02T09:43:05.325Z,10.59
2017-05-02T09:44:05.662Z,10.68
2017-05-02T09:45:05.397Z,10.7
2017-05-02T09:46:05.128Z,10.8
2017-05-02T09:47:05.175Z,10.89
2017-05-02T09:48:05.501Z,10.94
2017-05-02T09:49:05.226Z,10.91
2017-05-02T09:50:05.271Z,10.88
2017-05-02T09:51:05.313Z,10.98
2017-05-02T09:52:05.339Z,11.03
2017-05-02T09:53:05.376Z,11.17
2017-05-02T09:54:05.407Z,11.11
2017-05-02T09:55:05.447Z,11.21
2017-05-02T09:56:05.798Z,11.32
2017-05-02T09:57:05.518Z,11.31
2017-05-02T09:58:05.558Z,11.38
2017-05-02T09:59:05.586Z,11.39
2017-05-02T10:00:05.630Z,11.5
2017-05-02T10:01:05.666Z,11.54
2017-05-02T10:02:06.109Z,11.68
2017-05-02T10:03:06.362Z,11.64
2017-05-02T10:04:06.081Z,11.77
2017-05-02T10:05:05.811Z,11.93
2017-05-02T10:06:05.847Z,12.06
2017-05-02T10:07:05.908Z,12.2
2017-05-02T10:08:05.927Z,12.39
2017-05-02T10:09:06.277Z,12.6
2017-05-02T10:10:05.999Z,12.81
2017-05-02T10:11:06.344Z,12.99
2017-05-02T10:12:06.083Z,13.07
2017-05-02T10:13:06.425Z,13.21
2017-05-02T10:14:06.194Z,13.32
2017-05-02T10:15:06.522Z,13.71
2017-05-02T10:16:06.544Z,14.13
2017-05-02T10:17:06.582Z,14.39
2017-05-02T10:18:06.667Z,14.68
2017-05-02T10:19:06.354Z,14.84
2017-05-02T10:20:06.397Z,15.12
2017-05-02T10:21:06.742Z,15.21
2017-05-02T10:22:06.484Z,15.35
2017-05-02T10:23:06.520Z,15.31
2017-05-02T10:24:06.566Z,15.21
2017-05-02T10:25:06.608Z,15.08
2017-05-02T10:26:06.955Z,14.87
2017-05-02T10:27:06.694Z,14.8
2017-05-02T10:28:07.040Z,14.62
2017-05-02T10:29:06.820Z,14.5
2017-05-02T10:30:06.944Z,14.34
2017-05-02T10:31:06.858Z,14.35
2017-05-02T10:32:06.895Z,14.31
2017-05-02T10:33:06.938Z,14.27
2017-05-02T10:34:06.976Z,14.31
2017-05-02T10:35:07.660Z,14.28
2017-05-02T10:36:07.056Z,14.34
2017-05-02T10:37:07.099Z,14.39
2017-05-02T10:38:07.755Z,14.47
2017-05-02T10:39:07.803Z,14.69
2017-05-02T10:40:07.529Z,14.9
2017-05-02T10:41:07.270Z,15.09
2017-05-02T10:42:07.620Z,15.3
2017-05-02T10:43:08.949Z,15.42
2017-05-02T10:44:07.397Z,15.46
2017-05-02T10:45:07.439Z,15.43
2017-05-02T10:46:07.485Z,15.36
2017-05-02T10:47:07.836Z,15.35
2017-05-02T10:48:07.958Z,15.19
2017-05-02T10:49:07.940Z,15.05
2017-05-02T10:50:07.657Z,14.86
2017-05-02T10:51:07.721Z,14.9
2017-05-02T10:52:07.742Z,14.84
2017-05-02T10:53:08.098Z,14.69
2017-05-02T10:54:08.140Z,14.62
2017-05-02T10:55:07.868Z,14.6
2017-05-02T10:56:07.911Z,14.38
2017-05-02T10:57:07.953Z,14.32
2017-05-02T10:58:07.992Z,14.19
2017-05-02T10:59:08.346Z,14.24
2017-05-02T11:00:08.698Z,14.2
2017-05-02T11:01:08.118Z,14.07
2017-05-02T11:02:08.465Z,14.09
2017-05-02T11:03:08.503Z,14.06
2017-05-02T11:04:08.239Z,14.02
2017-05-02T11:05:08.581Z,14.09
2017-05-02T11:06:08.640Z,14.02
2017-05-02T11:07:08.359Z,14.02
2017-05-02T11:08:08.705Z,14.02
2017-05-02T11:09:08.751Z,14.13
2017-05-02T11:10:09.099Z,14.14
2017-05-02T11:11:08.523Z,14.21
2017-05-02T11:12:08.761Z,14.29
2017-05-02T11:13:08.600Z,14.5
2017-05-02T11:14:08.949Z,14.65
2017-05-02T11:15:08.709Z,14.84
2017-05-02T11:16:09.039Z,14.94
2017-05-02T11:17:08.767Z,15.08
2017-05-02T11:18:09.115Z,15.11
2017-05-02T11:19:09.156Z,15.15
2017-05-02T11:20:09.200Z,15.06
2017-05-02T11:21:08.928Z,15.2
2017-05-02T11:22:08.967Z,15.13
2017-05-02T11:23:09.008Z,15.19
2017-05-02T11:24:09.048Z,15.2
2017-05-02T11:25:09.096Z,15.2
2017-05-02T11:26:09.437Z,15.21
2017-05-02T11:27:09.182Z,15.2
2017-05-02T11:28:09.525Z,15.26
2017-05-02T11:29:09.567Z,15.28
2017-05-02T11:30:09.295Z,15.42
2017-05-02T11:31:09.644Z,15.46
2017-05-02T11:32:09.684Z,15.38
2017-05-02T11:33:09.414Z,15.45
2017-05-02T11:34:09.766Z,15.31
2017-05-02T11:35:09.491Z,15.35
2017-05-02T11:36:09.536Z,15.36
2017-05-02T11:37:09.582Z,15.15
2017-05-02T11:38:09.622Z,15.19
2017-05-02T11:39:09.652Z,15.13
2017-05-02T11:40:09.695Z,15.21
2017-05-02T11:41:09.741Z,15.15
2017-05-02T11:42:09.777Z,15.2
2017-05-02T11:43:09.815Z,15.09
2017-05-02T11:44:10.168Z,15.09
2017-05-02T11:45:10.205Z,15.03
2017-05-02T11:46:09.931Z,15.11
2017-05-02T11:47:09.976Z,14.95
2017-05-02T11:48:10.017Z,14.95
2017-05-02T11:49:10.050Z,14.93
2017-05-02T11:50:10.114Z,14.86
2017-05-02T11:51:10.136Z,14.86
2017-05-02T11:52:10.173Z,14.87
2017-05-02T11:53:10.835Z,14.91
2017-05-02T11:54:10.251Z,14.91
2017-05-02T11:55:10.290Z,15.02
2017-05-02T11:56:10.340Z,15.21
2017-05-02T11:57:10.676Z,15.21
2017-05-02T11:58:10.410Z,15.27
2017-05-02T11:59:10.760Z,15.21
2017-05-02T12:00:10.545Z,15.21
2017-05-02T12:01:10.840Z,15.28
2017-05-02T12:02:10.580Z,15.21
2017-05-02T12:03:10.654Z,15.21
2017-05-02T12:04:10.952Z,15.3
2017-05-02T12:05:10.691Z,15.24
2017-05-02T12:06:11.345Z,15.3
2017-05-02T12:07:10.775Z,15.26
2017-05-02T12:08:10.801Z,15.28
2017-05-02T12:09:10.852Z,15.26
2017-05-02T12:10:10.884Z,15.35
2017-05-02T12:11:10.925Z,15.33
2017-05-02T12:12:10.968Z,15.26
2017-05-02T12:13:11.007Z,15.27
2017-05-02T12:14:11.373Z,15.15
2017-05-02T12:15:11.697Z,15.21
2017-05-02T12:16:11.422Z,15.13
2017-05-02T12:17:11.158Z,15.2
2017-05-02T12:18:11.836Z,15.24
2017-05-02T12:19:11.240Z,15.31
2017-05-02T12:20:11.306Z,15.23
2017-05-02T12:21:11.325Z,15.2
2017-05-02T12:22:11.359Z,15.19
2017-05-02T12:23:11.700Z,15.13
2017-05-02T12:24:11.435Z,15.02
2017-05-02T12:25:11.777Z,15.08
2017-05-02T12:26:11.511Z,15.05
2017-05-02T12:27:11.853Z,15.09
2017-05-02T12:28:11.589Z,14.95
2017-05-02T12:29:11.621Z,14.94
2017-05-02T12:30:11.657Z,14.88
2017-05-02T12:31:11.700Z,14.8
2017-05-02T12:32:11.738Z,14.87
2017-05-02T12:33:11.777Z,14.88
2017-05-02T12:34:12.123Z,14.83
2017-05-02T12:35:11.854Z,14.9
2017-05-02T12:36:11.892Z,14.83
2017-05-02T12:37:11.934Z,14.86
2017-05-02T12:38:12.592Z,14.71
2017-05-02T12:39:12.010Z,14.71
2017-05-02T12:40:12.043Z,14.74
2017-05-02T12:41:12.082Z,14.71
2017-05-02T12:42:12.432Z,14.67
2017-05-02T12:43:12.780Z,14.75
2017-05-02T12:44:12.198Z,14.72
2017-05-02T12:45:12.275Z,14.74
2017-05-02T12:46:12.275Z,14.71
2017-05-02T12:47:12.312Z,14.74
2017-05-02T12:48:12.966Z,14.75
2017-05-02T12:49:12.713Z,14.74
2017-05-02T12:50:12.736Z,14.78
2017-05-02T12:51:12.476Z,14.72
2017-05-02T12:52:12.811Z,14.72
2017-05-02T12:53:12.852Z,14.69
2017-05-02T12:54:12.583Z,14.69
2017-05-02T12:57:12.610Z,14.75
2017-05-02T12:57:24.110Z,14.8
2017-05-02T12:58:24.458Z,14.75